Observations for CAMBRIDGE, United Kingdom (EGSC)

EGSC 271650Z VRB03KT 9000 BKN010 FEW028CB 15/14 Q1005   
EGSC 271620Z VRB03KT 9000 SCT011 SCT035CB 15/14 Q1005   
EGSC 271550Z 08005KT 8000 -RA SCT010 SCT035CB 15/14 Q1005 RERA  
EGSC 271520Z 06005KT 010V110 8000 RA SCT010 SCT035CB 15/14 Q1006
EGSC 271420Z 06004KT 360V110 7000 TSRA FEW006 SCT035CB 14/14 Q1006  
EGSC 271350Z 05006KT 010V110 7000 TSRA SCT005 SCT035CB 15/14 Q1006  
EGSC 271320Z 08005KT 040V130 4000 TSSHRA SCT005 SCT035CB 14/14 Q1007
EGSC 271250Z 05004KT 350V090 7000 TSSHRA SCT002 BKN028CB 14/14 Q1007
EGSC 271220Z 05005KT 360V080 7000 TSSHRA SCT004 BKN028CB 14/14 Q1007
EGSC 271150Z 01005KT 340V050 8000 +TSSHRA SCT001 BKN040CB 14/13 Q1008   
EGSC 271120Z 05004KT 8000 SHRA FEW015 BKN040 14/13 Q1008 RESHRA 
EGSC 271050Z 08005KT 030V140 9000 SHRA SCT028 14/13 Q1008 RESHRA
EGSC 271020Z 12005KT 030V160 6000 SHRA FEW002 BKN028 15/12 Q1008
EGSC 270950Z 13005KT 080V160 9999 4500SE SHRA FEW025 BKN040 17/13 Q1008 
EGSC 270920Z 11004KT 030V150 9999 BKN046 18/12 Q1008
EGSC 270850Z 11004KT 030V150 9999 SCT047 17/12 Q1008
EGSC 270820Z 11006KT 050V150 9999 FEW035 BKN047 18/12 Q1008 
EGSC 270750Z 12007KT 060V180 9999 SCT048 17/12 Q1009
EGSC 270720Z 09004KT 040V140 9999 BKN046 16/12 Q1009
EGSC 270650Z 12004KT 070V160 9999 BKN046 15/11 Q1009